createdAt,value
2023-05-04T00:00:11.463Z,12.81
2023-05-04T00:01:11.429Z,12.80
2023-05-04T00:02:11.411Z,12.80
2023-05-04T00:03:11.513Z,12.80
2023-05-04T00:04:11.496Z,12.80
2023-05-04T00:05:11.347Z,12.80
2023-05-04T00:06:11.375Z,12.77
2023-05-04T00:07:11.365Z,12.77
2023-05-04T00:08:11.325Z,12.80
2023-05-04T00:09:11.319Z,12.76
2023-05-04T00:10:11.327Z,12.69
2023-05-04T00:11:11.320Z,12.72
2023-05-04T00:12:11.950Z,12.69
2023-05-04T00:13:11.349Z,12.71
2023-05-04T00:14:11.316Z,12.69
2023-05-04T00:15:11.289Z,12.69
2023-05-04T00:16:11.364Z,12.63
2023-05-04T00:17:11.247Z,12.62
2023-05-04T00:18:11.217Z,12.63
2023-05-04T00:19:11.273Z,12.62
2023-05-04T00:20:11.278Z,12.61
2023-05-04T00:21:11.245Z,12.61
2023-05-04T00:22:11.170Z,12.61
2023-05-04T00:23:11.170Z,12.58
2023-05-04T00:24:11.145Z,12.55
2023-05-04T00:25:11.146Z,12.51
2023-05-04T00:26:11.130Z,12.50
2023-05-04T00:27:11.147Z,12.48
2023-05-04T00:28:11.177Z,12.44
2023-05-04T00:29:11.150Z,12.47
2023-05-04T00:30:11.146Z,12.48
2023-05-04T00:31:11.149Z,12.48
2023-05-04T00:32:11.060Z,12.47
2023-05-04T00:33:11.114Z,12.48
2023-05-04T00:34:11.077Z,12.48
2023-05-04T00:35:11.046Z,12.50
2023-05-04T00:36:11.020Z,12.48
2023-05-04T00:37:11.029Z,12.46
2023-05-04T00:38:11.031Z,12.51
2023-05-04T00:39:11.022Z,12.46
2023-05-04T00:40:10.996Z,12.47
2023-05-04T00:41:10.972Z,12.43
2023-05-04T00:42:10.963Z,12.43
2023-05-04T00:43:11.007Z,12.41
2023-05-04T00:44:11.033Z,12.40
2023-05-04T00:45:11.274Z,12.41
2023-05-04T00:46:10.902Z,12.43
2023-05-04T00:47:10.955Z,12.38
2023-05-04T00:48:10.981Z,12.41
2023-05-04T00:49:10.886Z,12.38
2023-05-04T00:50:10.916Z,12.36
2023-05-04T00:51:10.873Z,12.41
2023-05-04T00:52:10.969Z,12.38
2023-05-04T00:53:10.847Z,12.36
2023-05-04T00:54:10.865Z,12.35
2023-05-04T00:55:10.855Z,12.33
2023-05-04T00:56:10.834Z,12.35
2023-05-04T00:57:10.874Z,12.25
2023-05-04T00:58:10.803Z,12.18
2023-05-04T00:59:10.790Z,12.17
2023-05-04T01:00:10.795Z,12.10
2023-05-04T01:01:10.829Z,12.11
2023-05-04T01:02:10.771Z,12.10
2023-05-04T01:03:10.879Z,12.08
2023-05-04T01:04:11.057Z,12.08
2023-05-04T01:05:10.743Z,12.00
2023-05-04T01:06:10.737Z,12.07
2023-05-04T01:07:10.845Z,12.03
2023-05-04T01:08:10.975Z,12.03
2023-05-04T01:09:10.670Z,12.05
2023-05-04T01:10:10.742Z,12.05
2023-05-04T01:11:10.676Z,12.08
2023-05-04T01:12:10.660Z,12.07
2023-05-04T01:13:10.780Z,12.07
2023-05-04T01:14:10.693Z,12.04
2023-05-04T01:15:10.621Z,12.07
2023-05-04T01:16:10.650Z,12.05
2023-05-04T01:17:10.671Z,12.08
2023-05-04T01:18:10.616Z,12.11
2023-05-04T01:19:11.337Z,12.11
2023-05-04T01:20:10.568Z,12.08
2023-05-04T01:21:10.562Z,12.10
2023-05-04T01:22:10.566Z,12.13
2023-05-04T01:23:10.546Z,12.13
2023-05-04T01:24:10.548Z,12.14
2023-05-04T01:25:10.558Z,12.14
2023-05-04T01:26:10.524Z,12.11
2023-05-04T01:27:10.608Z,12.10
2023-05-04T01:28:10.474Z,12.10
2023-05-04T01:29:10.510Z,12.10
2023-05-04T01:30:10.488Z,12.04
2023-05-04T01:31:10.550Z,12.07
2023-05-04T01:32:10.434Z,12.00
2023-05-04T01:33:10.505Z,11.97
2023-05-04T01:34:10.641Z,11.95
2023-05-04T01:35:10.416Z,11.97
2023-05-04T01:36:10.395Z,11.97
2023-05-04T01:37:10.400Z,11.99
2023-05-04T01:38:10.429Z,11.99
2023-05-04T01:39:10.406Z,12.03
2023-05-04T01:40:10.387Z,11.99
2023-05-04T01:41:10.368Z,11.97
2023-05-04T01:42:10.331Z,11.95
2023-05-04T01:43:10.984Z,11.95
2023-05-04T01:44:10.305Z,11.96
2023-05-04T01:45:10.346Z,11.96
2023-05-04T01:46:10.335Z,11.96
2023-05-04T01:47:10.297Z,11.96
2023-05-04T01:48:10.427Z,11.96
2023-05-04T01:49:10.316Z,11.95
2023-05-04T01:50:10.289Z,11.97
2023-05-04T01:51:10.245Z,11.95
2023-05-04T01:52:10.295Z,11.96
2023-05-04T01:53:10.246Z,11.96
2023-05-04T01:54:10.238Z,11.93
2023-05-04T01:55:10.252Z,11.89
2023-05-04T01:56:10.887Z,11.87
2023-05-04T01:57:10.190Z,11.85
2023-05-04T01:58:10.195Z,11.82
2023-05-04T01:59:10.167Z,11.84
2023-05-04T02:00:10.183Z,11.80
2023-05-04T02:01:10.192Z,11.87
2023-05-04T02:02:10.156Z,11.89
2023-05-04T02:03:10.234Z,11.89
2023-05-04T02:04:10.271Z,11.89
2023-05-04T02:05:10.142Z,11.89
2023-05-04T02:06:10.091Z,11.96
2023-05-04T02:07:10.093Z,11.89
2023-05-04T02:08:10.097Z,11.87
2023-05-04T02:09:10.179Z,11.88
2023-05-04T02:10:10.068Z,11.85
2023-05-04T02:11:10.069Z,11.87
2023-05-04T02:12:10.032Z,11.84
2023-05-04T02:13:10.033Z,11.85
2023-05-04T02:14:10.050Z,11.84
2023-05-04T02:15:10.027Z,11.85
2023-05-04T02:16:10.038Z,11.88
2023-05-04T02:17:09.975Z,11.89
2023-05-04T02:18:10.004Z,11.89
2023-05-04T02:19:09.965Z,11.87
2023-05-04T02:20:09.947Z,11.80
2023-05-04T02:21:09.960Z,11.80
2023-05-04T02:22:09.962Z,11.82
2023-05-04T02:23:09.917Z,11.80
2023-05-04T02:24:09.898Z,11.84
2023-05-04T02:25:09.925Z,11.85
2023-05-04T02:26:09.926Z,11.82
2023-05-04T02:27:09.937Z,11.85
2023-05-04T02:28:09.854Z,11.87
2023-05-04T02:29:09.867Z,11.84
2023-05-04T02:30:09.872Z,11.82
2023-05-04T02:31:09.881Z,11.80
2023-05-04T02:32:09.811Z,11.82
2023-05-04T02:33:09.819Z,11.79
2023-05-04T02:34:09.785Z,11.80
2023-05-04T02:35:09.774Z,11.76
2023-05-04T02:36:09.820Z,11.77
2023-05-04T02:37:09.809Z,11.77
2023-05-04T02:38:09.765Z,11.80
2023-05-04T02:39:09.776Z,11.76
2023-05-04T02:40:09.791Z,11.84
2023-05-04T02:41:09.731Z,11.76
2023-05-04T02:42:09.729Z,11.73
2023-05-04T02:43:09.702Z,11.76
2023-05-04T02:44:09.697Z,11.71
2023-05-04T02:45:09.687Z,11.71
2023-05-04T02:46:09.716Z,11.70
2023-05-04T02:47:09.699Z,11.66
2023-05-04T02:48:09.684Z,11.59
2023-05-04T02:49:09.666Z,11.58
2023-05-04T02:50:09.640Z,11.59
2023-05-04T02:51:09.674Z,11.62
2023-05-04T02:52:09.641Z,11.64
2023-05-04T02:53:09.640Z,11.61
2023-05-04T02:54:09.604Z,11.64
2023-05-04T02:55:09.624Z,11.67
2023-05-04T02:56:09.606Z,11.64
2023-05-04T02:57:09.588Z,11.67
2023-05-04T02:58:09.588Z,11.62
2023-05-04T02:59:09.583Z,11.62
2023-05-04T03:00:09.513Z,11.64
2023-05-04T03:01:09.687Z,11.61
2023-05-04T03:02:09.533Z,11.59
2023-05-04T03:03:09.511Z,11.59
2023-05-04T03:04:09.559Z,11.59
2023-05-04T03:05:09.483Z,11.62
2023-05-04T03:06:09.520Z,11.59
2023-05-04T03:07:09.478Z,11.61
2023-05-04T03:08:09.497Z,11.61
2023-05-04T03:09:09.457Z,11.58
2023-05-04T03:10:09.512Z,11.59
2023-05-04T03:11:09.508Z,11.56
2023-05-04T03:12:09.429Z,11.58
2023-05-04T03:13:09.427Z,11.55
2023-05-04T03:14:09.446Z,11.55
2023-05-04T03:15:09.350Z,11.55
2023-05-04T03:16:09.436Z,11.56
2023-05-04T03:17:09.403Z,11.56
2023-05-04T03:18:09.573Z,11.58
2023-05-04T03:19:09.463Z,11.51
2023-05-04T03:20:09.441Z,11.54
2023-05-04T03:21:09.366Z,11.51
2023-05-04T03:22:09.284Z,11.51
2023-05-04T03:23:09.281Z,11.52
2023-05-04T03:24:09.241Z,11.54
2023-05-04T03:25:09.243Z,11.51
2023-05-04T03:26:09.204Z,11.55
2023-05-04T03:27:09.268Z,11.55
2023-05-04T03:28:09.239Z,11.55
2023-05-04T03:29:09.254Z,11.54
2023-05-04T03:30:09.235Z,11.54
2023-05-04T03:31:09.140Z,11.55
2023-05-04T03:32:09.179Z,11.55
2023-05-04T03:33:09.192Z,11.55
2023-05-04T03:34:09.176Z,11.56
2023-05-04T03:35:09.128Z,11.55
2023-05-04T03:36:09.171Z,11.59
2023-05-04T03:37:09.088Z,11.56
2023-05-04T03:38:09.130Z,11.62
2023-05-04T03:39:09.159Z,11.56
2023-05-04T03:40:09.085Z,11.62
2023-05-04T03:41:09.111Z,11.61
2023-05-04T03:42:09.072Z,11.62
2023-05-04T03:43:09.065Z,11.64
2023-05-04T03:44:09.027Z,11.62
2023-05-04T03:45:10.000Z,11.64
2023-05-04T03:46:09.046Z,11.62
2023-05-04T03:47:09.018Z,11.62
2023-05-04T03:48:09.005Z,11.59
2023-05-04T03:49:08.966Z,11.59
2023-05-04T03:50:08.965Z,11.56
2023-05-04T03:51:08.975Z,11.55
2023-05-04T03:52:09.052Z,11.52
2023-05-04T03:53:08.996Z,11.54
2023-05-04T03:54:08.938Z,11.55
2023-05-04T03:55:08.902Z,11.58
2023-05-04T03:56:08.901Z,11.58
2023-05-04T03:57:09.918Z,11.62
2023-05-04T03:58:08.967Z,11.64
2023-05-04T03:59:08.860Z,11.62
2023-05-04T04:00:08.890Z,11.64
2023-05-04T04:01:08.843Z,11.64
2023-05-04T04:02:08.851Z,11.67
2023-05-04T04:03:09.122Z,11.62
2023-05-04T04:04:09.026Z,11.64
2023-05-04T04:05:08.834Z,11.64
2023-05-04T04:06:08.832Z,11.62
2023-05-04T04:07:08.879Z,11.64
2023-05-04T04:08:08.890Z,11.61
2023-05-04T04:09:08.812Z,11.62
2023-05-04T04:10:08.808Z,11.66
2023-05-04T04:11:08.799Z,11.70
2023-05-04T04:12:09.403Z,11.71
2023-05-04T04:13:08.766Z,11.73
2023-05-04T04:14:08.740Z,11.73
2023-05-04T04:15:08.727Z,11.73
2023-05-04T04:16:08.724Z,11.71
2023-05-04T04:17:08.699Z,11.73
2023-05-04T04:18:08.723Z,11.73
2023-05-04T04:19:08.655Z,11.73
2023-05-04T04:20:08.633Z,11.74
2023-05-04T04:21:08.673Z,11.71
2023-05-04T04:22:08.672Z,11.73
2023-05-04T04:23:08.662Z,11.74
2023-05-04T04:24:08.622Z,11.71
2023-05-04T04:25:08.608Z,11.74
2023-05-04T04:26:08.890Z,11.73
2023-05-04T04:27:08.610Z,11.70
2023-05-04T04:28:08.784Z,11.74
2023-05-04T04:29:08.671Z,11.69
2023-05-04T04:30:08.725Z,11.70
2023-05-04T04:31:09.086Z,11.71
2023-05-04T04:32:08.640Z,11.70
2023-05-04T04:33:08.826Z,11.66
2023-05-04T04:34:08.879Z,11.66
2023-05-04T04:35:08.532Z,11.67
2023-05-04T04:36:09.185Z,11.67
2023-05-04T04:37:08.593Z,11.66
2023-05-04T04:38:08.843Z,11.69
2023-05-04T04:39:08.630Z,11.69
2023-05-04T04:40:08.770Z,11.67
2023-05-04T04:41:08.673Z,11.67
2023-05-04T04:42:08.517Z,11.66
2023-05-04T04:43:08.520Z,11.66
2023-05-04T04:44:08.599Z,11.66
2023-05-04T04:45:08.472Z,11.64
2023-05-04T04:46:08.522Z,11.67
2023-05-04T04:47:08.713Z,11.67
2023-05-04T04:48:08.502Z,11.66
2023-05-04T04:49:08.677Z,11.66
2023-05-04T04:50:08.544Z,11.69
2023-05-04T04:51:08.702Z,11.71
2023-05-04T04:52:09.128Z,11.66
2023-05-04T04:53:08.681Z,11.66
2023-05-04T04:54:08.452Z,11.69
2023-05-04T04:55:08.629Z,11.71
2023-05-04T04:56:08.677Z,11.73
2023-05-04T04:57:08.295Z,11.76
2023-05-04T04:58:08.472Z,11.74
2023-05-04T04:59:08.289Z,11.76
2023-05-04T05:00:08.308Z,11.74
2023-05-04T05:01:08.727Z,11.74
2023-05-04T05:02:08.337Z,11.74
2023-05-04T05:03:08.585Z,11.76
2023-05-04T05:04:08.494Z,11.74
2023-05-04T05:05:08.943Z,11.70
2023-05-04T05:06:08.438Z,11.69
2023-05-04T05:07:08.697Z,11.70
2023-05-04T05:08:09.189Z,11.70
2023-05-04T05:09:08.765Z,11.71
2023-05-04T05:10:08.677Z,11.69
2023-05-04T05:11:08.312Z,11.67
2023-05-04T05:12:08.228Z,11.69
2023-05-04T05:13:08.246Z,11.69
2023-05-04T05:14:08.237Z,11.70
2023-05-04T05:15:08.234Z,11.76
2023-05-04T05:16:08.745Z,11.71
2023-05-04T05:17:08.656Z,11.77
2023-05-04T05:18:08.076Z,11.76
2023-05-04T05:19:08.247Z,11.77
2023-05-04T05:20:08.125Z,11.82
2023-05-04T05:21:08.090Z,11.87
2023-05-04T05:22:08.305Z,11.87
2023-05-04T05:23:08.066Z,11.85
2023-05-04T05:24:08.057Z,11.87
2023-05-04T05:25:08.021Z,11.84
2023-05-04T05:26:08.434Z,11.84
2023-05-04T05:27:08.008Z,11.84
2023-05-04T05:28:07.978Z,11.82
2023-05-04T05:29:07.939Z,11.82
2023-05-04T05:30:08.071Z,11.77
2023-05-04T05:31:07.962Z,11.71
2023-05-04T05:32:07.943Z,11.67
2023-05-04T05:33:07.941Z,11.73
2023-05-04T05:34:08.030Z,11.73
2023-05-04T05:35:07.916Z,11.77
2023-05-04T05:36:07.922Z,11.80
2023-05-04T05:37:07.905Z,11.76
2023-05-04T05:38:07.880Z,11.82
2023-05-04T05:39:07.861Z,11.88
2023-05-04T05:40:08.077Z,11.93
2023-05-04T05:41:07.820Z,12.04
2023-05-04T05:42:08.009Z,12.11
2023-05-04T05:43:07.809Z,12.22
2023-05-04T05:44:07.822Z,12.46
2023-05-04T05:45:07.738Z,12.83
2023-05-04T05:46:07.862Z,13.09
2023-05-04T05:47:07.879Z,13.36
2023-05-04T05:48:07.776Z,13.54
2023-05-04T05:49:07.715Z,13.67
2023-05-04T05:50:08.007Z,13.80
2023-05-04T05:51:07.839Z,13.82
2023-05-04T05:52:08.600Z,13.75
2023-05-04T05:53:07.791Z,13.61
2023-05-04T05:54:07.793Z,13.60
2023-05-04T05:55:07.687Z,13.55
2023-05-04T05:56:07.704Z,13.57
2023-05-04T05:57:07.672Z,13.65
2023-05-04T05:58:07.622Z,13.72
2023-05-04T05:59:07.637Z,13.53
2023-05-04T06:00:07.822Z,13.42
2023-05-04T06:01:07.632Z,13.40
2023-05-04T06:02:07.733Z,13.43
2023-05-04T06:03:07.716Z,13.39
2023-05-04T06:04:07.792Z,13.35
2023-05-04T06:05:07.656Z,13.32
2023-05-04T06:06:07.613Z,13.36
2023-05-04T06:07:08.326Z,13.27
2023-05-04T06:08:07.697Z,13.20
2023-05-04T06:09:07.534Z,13.24
2023-05-04T06:10:07.937Z,13.36
2023-05-04T06:11:07.539Z,13.63
2023-05-04T06:12:07.583Z,13.98
2023-05-04T06:13:07.608Z,14.45
2023-05-04T06:14:07.515Z,15.14
2023-05-04T06:15:07.628Z,15.70
2023-05-04T06:16:07.550Z,15.98
2023-05-04T06:17:07.586Z,16.02
2023-05-04T06:18:07.771Z,16.00
2023-05-04T06:19:07.446Z,16.22
2023-05-04T06:20:08.243Z,16.24
2023-05-04T06:21:07.440Z,15.91
2023-05-04T06:22:07.475Z,15.52
2023-05-04T06:23:07.413Z,15.54
2023-05-04T06:24:07.354Z,15.33
2023-05-04T06:25:08.328Z,15.23
2023-05-04T06:26:07.460Z,15.19
2023-05-04T06:27:07.417Z,15.26
2023-05-04T06:28:07.336Z,15.05
2023-05-04T06:29:07.346Z,14.82
2023-05-04T06:30:07.670Z,14.64
2023-05-04T06:31:08.454Z,14.34
2023-05-04T06:32:07.343Z,14.27
2023-05-04T06:33:07.321Z,14.19
2023-05-04T06:34:07.287Z,14.36
2023-05-04T06:35:07.307Z,14.41
2023-05-04T06:36:07.277Z,14.41
2023-05-04T06:37:07.577Z,14.45
2023-05-04T06:38:07.279Z,14.58
2023-05-04T06:39:07.371Z,14.79
2023-05-04T06:40:07.368Z,14.92
2023-05-04T06:41:07.227Z,15.07
2023-05-04T06:42:07.273Z,15.08
2023-05-04T06:43:07.228Z,15.25
2023-05-04T06:44:07.170Z,15.40
2023-05-04T06:45:07.137Z,15.43
2023-05-04T06:46:08.034Z,15.08
2023-05-04T06:47:07.390Z,14.78
2023-05-04T06:48:07.266Z,14.52
2023-05-04T06:49:07.480Z,14.46
2023-05-04T06:50:09.221Z,14.52
2023-05-04T06:51:07.272Z,14.64
2023-05-04T06:52:07.114Z,14.61
2023-05-04T06:53:07.368Z,14.48
2023-05-04T06:54:07.113Z,14.31
2023-05-04T06:55:07.152Z,14.18
2023-05-04T06:56:07.042Z,14.16
2023-05-04T06:57:07.111Z,14.18
2023-05-04T06:58:07.048Z,14.22
2023-05-04T06:59:06.982Z,14.23
2023-05-04T07:00:07.051Z,14.22
2023-05-04T07:01:07.038Z,14.28
2023-05-04T07:02:06.947Z,14.30
2023-05-04T07:03:07.208Z,14.30
2023-05-04T07:04:07.101Z,14.28
2023-05-04T07:05:06.926Z,14.31
2023-05-04T07:06:06.956Z,14.38
2023-05-04T07:07:07.557Z,14.40
2023-05-04T07:08:06.928Z,14.41
2023-05-04T07:09:07.238Z,14.46
2023-05-04T07:10:07.103Z,14.37
2023-05-04T07:11:07.076Z,14.19
2023-05-04T07:12:06.959Z,14.18
2023-05-04T07:13:07.128Z,14.18
2023-05-04T07:14:08.526Z,14.26
2023-05-04T07:15:10.698Z,14.34
2023-05-04T07:16:06.928Z,14.41
2023-05-04T07:17:06.869Z,14.45
2023-05-04T07:18:06.886Z,14.45
2023-05-04T07:19:07.067Z,14.41
2023-05-04T07:20:06.998Z,14.46
2023-05-04T07:21:25.937Z,14.51
2023-05-04T07:22:06.835Z,14.61
2023-05-04T07:23:06.727Z,14.74
2023-05-04T07:24:06.762Z,14.85
2023-05-04T07:25:06.817Z,14.92
2023-05-04T07:26:06.755Z,15.03
2023-05-04T07:27:06.711Z,15.11
2023-05-04T07:28:06.699Z,15.19
2023-05-04T07:29:06.703Z,15.27
2023-05-04T07:30:06.915Z,15.30
2023-05-04T07:31:06.656Z,15.35
2023-05-04T07:32:06.742Z,15.33
2023-05-04T07:33:06.720Z,15.26
2023-05-04T07:34:06.659Z,15.25
2023-05-04T07:35:06.661Z,15.22
2023-05-04T07:36:06.612Z,15.29
2023-05-04T07:37:07.693Z,15.27
2023-05-04T07:38:06.658Z,15.29
2023-05-04T07:39:06.687Z,15.22
2023-05-04T07:40:06.889Z,15.14
2023-05-04T07:41:06.721Z,15.10
2023-05-04T07:42:06.745Z,14.96
2023-05-04T07:43:06.637Z,14.99
2023-05-04T07:44:06.546Z,15.05
2023-05-04T07:45:06.506Z,15.12
2023-05-04T07:46:06.549Z,15.20
2023-05-04T07:47:06.502Z,15.22
2023-05-04T07:48:06.547Z,15.35
2023-05-04T07:49:06.492Z,15.41
2023-05-04T07:50:06.683Z,15.48
2023-05-04T07:51:06.607Z,15.52
2023-05-04T07:52:06.547Z,15.58
2023-05-04T07:53:06.504Z,15.63
2023-05-04T07:54:06.492Z,15.63
2023-05-04T07:55:06.582Z,15.69
2023-05-04T07:56:06.590Z,15.81
2023-05-04T07:57:06.428Z,15.88
2023-05-04T07:58:09.108Z,15.95
2023-05-04T07:59:06.422Z,15.99
2023-05-04T08:00:06.612Z,16.02
2023-05-04T08:01:06.367Z,15.93
2023-05-04T08:02:07.151Z,15.87
2023-05-04T08:03:06.533Z,15.87
2023-05-04T08:04:07.968Z,16.00
2023-05-04T08:05:06.388Z,16.03
2023-05-04T08:06:06.351Z,16.10
2023-05-04T08:07:06.674Z,16.14
2023-05-04T08:08:06.365Z,16.13
2023-05-04T08:09:06.341Z,16.14
2023-05-04T08:10:06.454Z,16.09
2023-05-04T08:11:19.487Z,16.08
2023-05-04T08:12:06.328Z,16.05
2023-05-04T08:13:06.428Z,15.93
2023-05-04T08:14:06.784Z,15.84
2023-05-04T08:15:06.503Z,15.88
2023-05-04T08:16:06.301Z,15.98
2023-05-04T08:17:06.735Z,16.09
2023-05-04T08:18:06.462Z,16.16
2023-05-04T08:19:06.430Z,16.21
2023-05-04T08:20:06.259Z,16.25
2023-05-04T08:21:06.296Z,16.28
2023-05-04T08:22:07.524Z,16.29
2023-05-04T08:23:06.456Z,16.33
2023-05-04T08:24:07.267Z,16.40
2023-05-04T08:25:06.824Z,16.42
2023-05-04T08:26:06.234Z,16.44
2023-05-04T08:27:08.759Z,16.52
2023-05-04T08:28:06.497Z,16.54
2023-05-04T08:29:06.770Z,16.57
2023-05-04T08:30:06.400Z,16.65
2023-05-04T08:31:06.613Z,16.73
2023-05-04T08:32:06.276Z,16.84
2023-05-04T08:33:06.343Z,16.90
2023-05-04T08:34:06.384Z,17.01
2023-05-04T08:35:06.386Z,17.06
2023-05-04T08:36:06.261Z,17.06
2023-05-04T08:37:06.330Z,17.02
2023-05-04T08:38:06.494Z,17.04
2023-05-04T08:39:06.189Z,17.10
2023-05-04T08:40:07.778Z,17.14
2023-05-04T08:41:06.146Z,17.19
2023-05-04T08:42:06.021Z,17.01
2023-05-04T08:43:06.237Z,16.90
2023-05-04T08:44:06.534Z,16.82
2023-05-04T08:45:06.638Z,16.76
2023-05-04T08:46:06.106Z,16.59
2023-05-04T08:47:06.124Z,16.54
2023-05-04T08:48:06.055Z,16.49
2023-05-04T08:49:06.069Z,16.54
2023-05-04T08:50:06.004Z,16.55
2023-05-04T08:51:06.231Z,16.55
2023-05-04T08:52:06.062Z,16.59
2023-05-04T08:53:06.162Z,16.69
2023-05-04T08:54:07.439Z,16.84
2023-05-04T08:55:06.306Z,16.98
2023-05-04T08:56:06.163Z,17.14
2023-05-04T08:57:06.069Z,17.17
2023-05-04T08:58:06.216Z,17.17
2023-05-04T08:59:05.886Z,17.10
2023-05-04T09:00:05.872Z,16.99
2023-05-04T09:01:06.186Z,17.01
2023-05-04T09:02:05.984Z,17.06
2023-05-04T09:03:05.867Z,17.14
2023-05-04T09:04:05.811Z,17.30
2023-05-04T09:05:06.262Z,17.43
2023-05-04T09:06:05.831Z,17.56
2023-05-04T09:07:05.882Z,17.72
2023-05-04T09:08:05.811Z,17.68
2023-05-04T09:09:05.704Z,17.66
2023-05-04T09:10:05.712Z,17.62
2023-05-04T09:11:05.723Z,17.53
2023-05-04T09:12:05.662Z,17.54
2023-05-04T09:13:05.654Z,17.56
2023-05-04T09:14:05.829Z,17.59
2023-05-04T09:15:06.060Z,17.57
2023-05-04T09:16:05.694Z,17.57
2023-05-04T09:17:06.001Z,17.59
2023-05-04T09:18:05.862Z,17.68
2023-05-04T09:19:05.821Z,17.73
2023-05-04T09:20:05.973Z,17.83
2023-05-04T09:21:06.259Z,17.96
2023-05-04T09:22:05.577Z,18.05
2023-05-04T09:23:05.558Z,18.13
2023-05-04T09:24:05.617Z,18.20
2023-05-04T09:25:05.974Z,18.23
2023-05-04T09:26:05.533Z,18.27
2023-05-04T09:27:05.571Z,18.24
2023-05-04T09:28:05.649Z,18.20
2023-05-04T09:29:05.587Z,18.12
2023-05-04T09:30:05.841Z,18.05
2023-05-04T09:31:05.537Z,17.97
2023-05-04T09:32:05.457Z,17.94
2023-05-04T09:33:05.515Z,17.93
2023-05-04T09:34:05.404Z,17.96
2023-05-04T09:35:10.740Z,18.02
2023-05-04T09:36:05.453Z,18.08
2023-05-04T09:37:05.402Z,18.18
2023-05-04T09:38:05.356Z,18.12
2023-05-04T09:39:05.411Z,18.03
2023-05-04T09:40:05.346Z,17.94
2023-05-04T09:41:05.359Z,17.96
2023-05-04T09:42:05.355Z,18.01
2023-05-04T09:43:05.354Z,18.09
2023-05-04T09:44:05.506Z,18.13
2023-05-04T09:45:05.701Z,18.18
2023-05-04T09:46:05.905Z,18.20
2023-05-04T09:47:05.554Z,18.18
2023-05-04T09:48:05.448Z,18.20
2023-05-04T09:49:05.292Z,18.12
2023-05-04T09:50:05.352Z,18.05
2023-05-04T09:51:05.334Z,18.03
2023-05-04T09:52:05.588Z,18.08
2023-05-04T09:53:05.357Z,18.13
2023-05-04T09:54:05.315Z,18.17
2023-05-04T09:55:05.595Z,18.20
2023-05-04T09:56:08.017Z,18.23
2023-05-04T09:57:05.356Z,18.26
2023-05-04T09:58:05.365Z,18.34
2023-05-04T09:59:05.268Z,18.41
2023-05-04T10:00:05.273Z,18.46
2023-05-04T10:01:05.170Z,18.57
2023-05-04T10:02:14.582Z,18.68
2023-05-04T10:03:05.204Z,18.78
2023-05-04T10:04:05.193Z,18.76
2023-05-04T10:05:05.257Z,18.75
2023-05-04T10:06:05.066Z,18.60
2023-05-04T10:07:05.427Z,18.49
2023-05-04T10:08:05.169Z,18.45
2023-05-04T10:09:05.118Z,18.45
2023-05-04T10:10:05.197Z,18.45
2023-05-04T10:11:05.505Z,18.51
2023-05-04T10:12:05.103Z,18.51
2023-05-04T10:13:05.142Z,18.63
2023-05-04T10:14:05.003Z,18.67
2023-05-04T10:15:05.094Z,18.74
2023-05-04T10:16:05.047Z,18.85
2023-05-04T10:17:05.320Z,18.81
2023-05-04T10:18:04.931Z,18.82
2023-05-04T10:19:05.155Z,18.86
2023-05-04T10:20:04.998Z,18.83
2023-05-04T10:21:07.528Z,18.68
2023-05-04T10:22:04.890Z,18.67
2023-05-04T10:23:06.751Z,18.75
2023-05-04T10:24:04.941Z,18.67
2023-05-04T10:25:05.039Z,18.74
2023-05-04T10:26:04.939Z,18.85
2023-05-04T10:27:04.904Z,18.96
2023-05-04T10:28:04.878Z,19.04
2023-05-04T10:29:04.919Z,19.07
2023-05-04T10:30:04.836Z,19.12
2023-05-04T10:31:04.925Z,19.13
2023-05-04T10:32:05.042Z,19.24
2023-05-04T10:33:04.903Z,19.27
2023-05-04T10:34:05.094Z,19.23
2023-05-04T10:35:04.974Z,19.27
2023-05-04T10:36:04.824Z,19.34
2023-05-04T10:37:04.939Z,19.44
2023-05-04T10:38:04.803Z,19.54
2023-05-04T10:39:04.764Z,19.62
2023-05-04T10:40:07.311Z,19.74
2023-05-04T10:41:04.765Z,19.81
2023-05-04T10:42:04.778Z,19.89
2023-05-04T10:43:04.886Z,19.96
2023-05-04T10:44:04.745Z,19.99
2023-05-04T10:45:04.900Z,19.99
2023-05-04T10:46:04.747Z,20.02
2023-05-04T10:47:05.817Z,19.97
2023-05-04T10:48:04.806Z,19.99
2023-05-04T10:49:04.757Z,19.96
2023-05-04T10:50:04.866Z,20.00
2023-05-04T10:51:04.700Z,20.08
2023-05-04T10:52:04.702Z,20.11
2023-05-04T10:53:04.612Z,20.14
2023-05-04T10:54:04.596Z,20.17
2023-05-04T10:55:04.700Z,20.18
2023-05-04T10:56:04.596Z,20.23
2023-05-04T10:57:04.531Z,20.29
2023-05-04T10:58:04.534Z,20.37
2023-05-04T10:59:04.671Z,20.41
2023-05-04T11:00:04.615Z,20.53
2023-05-04T11:49:16.304Z,20.63
2023-05-04T11:49:21.898Z,21.53
2023-05-04T11:50:21.901Z,21.59
2023-05-04T11:51:21.944Z,21.63
2023-05-04T11:52:21.878Z,21.67
2023-05-04T12:24:44.748Z,21.65
2023-05-04T12:24:50.231Z,22.22
2023-05-04T14:41:11.650Z,22.21
2023-05-04T14:41:17.124Z,23.64
2023-05-04T16:57:30.227Z,23.71
2023-05-04T16:57:35.694Z,23.52
2023-05-04T19:13:49.857Z,23.56
2023-05-04T19:13:55.415Z,20.85
2023-05-04T19:14:55.419Z,20.80
2023-05-04T21:31:06.830Z,20.80
2023-05-04T21:31:13.262Z,17.96
2023-05-04T21:32:12.333Z,17.94
2023-05-04T21:33:12.314Z,17.93
2023-05-04T21:34:12.354Z,17.90
2023-05-04T21:35:12.316Z,17.87
2023-05-04T21:36:12.323Z,17.88
2023-05-04T21:37:12.256Z,17.84
2023-05-04T23:55:03.836Z,16.52
2023-05-04T23:56:04.635Z,16.57
2023-05-04T23:57:04.476Z,16.58
2023-05-04T23:58:04.466Z,16.62
2023-05-04T23:59:04.424Z,16.62
